SLCB/CBB METAR and TAF weather

Enter ICAO airport designator
Station Type Date Time Source
SLCB METAR 2019/12/15 17:00 UTC NOAA

SLCB 151700Z 35008KT 280V040 9999 FEW033 FEW036CB 29/04 Q1019


Station Type Date Time Source
SLCB Decoded METAR 2019/12/15 17:00 UTC NOAA

Cochabamba, Bolivia (SLCB) 17-25S 066-11W 2570M
Dec 15, 2019 - 12:00 PM EST / 2019.12.15 1700 UTC
Wind: from the N (350 degrees) at 9 MPH (8 KT) (direction variable):0
Visibility: greater than 7 mile(s):0
Sky conditions: mostly clear
Weather: Cumulonimbus clouds observed
Temperature: 84 F (29 C)
Dew Point: 39 F (4 C)
Relative Humidity: 20%
Pressure (altimeter): 30.09 in. Hg (1019 hPa)
ob: SLCB 151700Z 35008KT 280V040 9999 FEW033 FEW036CB 29/04 Q1019
cycle: 17

Station Type Date Time Source
SLCB TAF 2019/12/15 18:48 UTC NOAA

TAF TAF SLCB 151635Z 1518/1618 24012KT 9999 SCT033 FEW036CB SCT080 TX31/1519Z TN12/1611Z
TEMPO 1519/1521 02015KT VCTSSH
BECMG 1522/1600 12015KT SCT027 BKN070
BECMG 1602/1604 24005KT
TEMPO 1604/1606 8000 RA

Example: see airport list